sensor_id;sensor_type;location;lat;lon;timestamp;P1;durP1;ratioP1;P2;durP2;ratioP2
45764;SDS011;31474;45.332;10.230;2024-03-22T00:02:02;10.00;;;8.98;;
45764;SDS011;31474;45.332;10.230;2024-03-22T00:04:27;9.48;;;8.50;;
45764;SDS011;31474;45.332;10.230;2024-03-22T00:06:53;10.30;;;8.77;;
45764;SDS011;31474;45.332;10.230;2024-03-22T00:09:18;8.85;;;8.00;;
45764;SDS011;31474;45.332;10.230;2024-03-22T00:11:44;10.13;;;9.05;;
45764;SDS011;31474;45.332;10.230;2024-03-22T00:14:10;9.23;;;8.32;;
45764;SDS011;31474;45.332;10.230;2024-03-22T00:16:36;10.48;;;9.35;;
45764;SDS011;31474;45.332;10.230;2024-03-22T00:19:02;9.88;;;8.85;;
45764;SDS011;31474;45.332;10.230;2024-03-22T00:21:28;9.82;;;8.82;;
45764;SDS011;31474;45.332;10.230;2024-03-22T00:23:54;10.95;;;9.85;;
45764;SDS011;31474;45.332;10.230;2024-03-22T00:26:21;9.00;;;8.10;;
45764;SDS011;31474;45.332;10.230;2024-03-22T00:28:46;9.38;;;8.48;;
45764;SDS011;31474;45.332;10.230;2024-03-22T00:31:12;9.70;;;8.70;;
45764;SDS011;31474;45.332;10.230;2024-03-22T00:33:38;10.75;;;9.65;;
45764;SDS011;31474;45.332;10.230;2024-03-22T00:36:03;9.88;;;8.90;;
45764;SDS011;31474;45.332;10.230;2024-03-22T00:38:29;9.18;;;8.27;;
45764;SDS011;31474;45.332;10.230;2024-03-22T00:40:55;9.52;;;8.63;;
45764;SDS011;31474;45.332;10.230;2024-03-22T00:43:21;10.07;;;9.15;;
45764;SDS011;31474;45.332;10.230;2024-03-22T00:45:46;8.88;;;7.97;;
45764;SDS011;31474;45.332;10.230;2024-03-22T00:48:12;9.25;;;8.20;;
45764;SDS011;31474;45.332;10.230;2024-03-22T00:50:38;9.60;;;8.68;;
45764;SDS011;31474;45.332;10.230;2024-03-22T00:53:04;8.50;;;7.68;;
45764;SDS011;31474;45.332;10.230;2024-03-22T00:55:31;8.98;;;8.07;;
45764;SDS011;31474;45.332;10.230;2024-03-22T00:57:57;9.35;;;8.52;;
45764;SDS011;31474;45.332;10.230;2024-03-22T01:00:22;10.10;;;9.13;;
45764;SDS011;31474;45.332;10.230;2024-03-22T01:02:49;9.75;;;8.80;;
45764;SDS011;31474;45.332;10.230;2024-03-22T01:05:15;11.18;;;9.35;;
45764;SDS011;31474;45.332;10.230;2024-03-22T01:07:42;10.40;;;9.20;;
45764;SDS011;31474;45.332;10.230;2024-03-22T01:10:07;10.65;;;9.57;;
45764;SDS011;31474;45.332;10.230;2024-03-22T01:12:33;9.75;;;8.85;;
45764;SDS011;31474;45.332;10.230;2024-03-22T01:14:59;9.88;;;8.98;;
45764;SDS011;31474;45.332;10.230;2024-03-22T01:17:25;9.13;;;8.23;;
45764;SDS011;31474;45.332;10.230;2024-03-22T01:19:50;9.65;;;8.13;;
45764;SDS011;31474;45.332;10.230;2024-03-22T01:22:17;10.02;;;8.60;;
45764;SDS011;31474;45.332;10.230;2024-03-22T01:24:43;10.43;;;9.32;;
45764;SDS011;31474;45.332;10.230;2024-03-22T01:27:11;9.52;;;8.45;;
45764;SDS011;31474;45.332;10.230;2024-03-22T01:29:37;9.43;;;8.52;;
45764;SDS011;31474;45.332;10.230;2024-03-22T01:32:02;10.73;;;9.50;;
45764;SDS011;31474;45.332;10.230;2024-03-22T01:34:28;10.43;;;9.38;;
45764;SDS011;31474;45.332;10.230;2024-03-22T01:36:54;10.35;;;9.35;;
45764;SDS011;31474;45.332;10.230;2024-03-22T01:39:20;9.68;;;8.68;;
45764;SDS011;31474;45.332;10.230;2024-03-22T01:41:49;9.10;;;8.20;;
45764;SDS011;31474;45.332;10.230;2024-03-22T01:44:16;10.02;;;9.02;;
45764;SDS011;31474;45.332;10.230;2024-03-22T01:46:42;9.52;;;8.63;;
45764;SDS011;31474;45.332;10.230;2024-03-22T01:49:09;10.02;;;9.02;;
45764;SDS011;31474;45.332;10.230;2024-03-22T01:51:36;9.15;;;8.25;;
45764;SDS011;31474;45.332;10.230;2024-03-22T01:54:02;10.20;;;9.20;;
45764;SDS011;31474;45.332;10.230;2024-03-22T01:56:29;9.82;;;8.93;;
45764;SDS011;31474;45.332;10.230;2024-03-22T01:58:55;9.40;;;8.50;;
45764;SDS011;31474;45.332;10.230;2024-03-22T02:01:23;9.07;;;8.20;;
45764;SDS011;31474;45.332;10.230;2024-03-22T02:03:48;10.23;;;8.93;;
45764;SDS011;31474;45.332;10.230;2024-03-22T02:06:14;9.32;;;8.48;;
45764;SDS011;31474;45.332;10.230;2024-03-22T02:08:40;9.45;;;8.52;;
45764;SDS011;31474;45.332;10.230;2024-03-22T02:11:07;10.15;;;9.25;;
45764;SDS011;31474;45.332;10.230;2024-03-22T02:13:32;9.10;;;8.30;;
45764;SDS011;31474;45.332;10.230;2024-03-22T02:15:58;10.63;;;9.52;;
45764;SDS011;31474;45.332;10.230;2024-03-22T02:18:24;10.27;;;9.20;;
45764;SDS011;31474;45.332;10.230;2024-03-22T02:20:49;9.18;;;8.20;;
45764;SDS011;31474;45.332;10.230;2024-03-22T02:23:15;10.23;;;9.15;;
45764;SDS011;31474;45.332;10.230;2024-03-22T02:25:40;9.45;;;8.55;;
45764;SDS011;31474;45.332;10.230;2024-03-22T02:28:06;10.00;;;9.00;;
45764;SDS011;31474;45.332;10.230;2024-03-22T02:30:31;9.65;;;8.75;;
45764;SDS011;31474;45.332;10.230;2024-03-22T02:32:57;9.98;;;8.95;;
45764;SDS011;31474;45.332;10.230;2024-03-22T02:35:23;9.80;;;8.85;;
45764;SDS011;31474;45.332;10.230;2024-03-22T02:37:48;10.38;;;9.35;;
45764;SDS011;31474;45.332;10.230;2024-03-22T02:40:14;9.95;;;9.05;;
45764;SDS011;31474;45.332;10.230;2024-03-22T02:42:39;11.05;;;9.95;;
45764;SDS011;31474;45.332;10.230;2024-03-22T02:45:05;10.48;;;9.32;;
45764;SDS011;31474;45.332;10.230;2024-03-22T02:47:31;10.50;;;9.50;;
45764;SDS011;31474;45.332;10.230;2024-03-22T02:49:57;10.73;;;9.73;;
45764;SDS011;31474;45.332;10.230;2024-03-22T02:52:22;10.40;;;9.32;;
45764;SDS011;31474;45.332;10.230;2024-03-22T02:54:48;9.48;;;8.50;;
45764;SDS011;31474;45.332;10.230;2024-03-22T02:57:13;10.52;;;9.52;;
45764;SDS011;31474;45.332;10.230;2024-03-22T02:59:39;10.73;;;9.63;;
45764;SDS011;31474;45.332;10.230;2024-03-22T03:02:04;10.75;;;9.65;;
45764;SDS011;31474;45.332;10.230;2024-03-22T03:04:30;9.95;;;8.85;;
45764;SDS011;31474;45.332;10.230;2024-03-22T03:06:55;10.45;;;9.45;;
45764;SDS011;31474;45.332;10.230;2024-03-22T03:09:21;10.32;;;9.27;;
45764;SDS011;31474;45.332;10.230;2024-03-22T03:11:47;11.10;;;10.00;;
45764;SDS011;31474;45.332;10.230;2024-03-22T03:14:12;10.30;;;9.27;;
45764;SDS011;31474;45.332;10.230;2024-03-22T03:16:38;11.43;;;10.10;;
45764;SDS011;31474;45.332;10.230;2024-03-22T03:19:03;10.43;;;9.43;;
45764;SDS011;31474;45.332;10.230;2024-03-22T03:21:29;10.23;;;9.25;;
45764;SDS011;31474;45.332;10.230;2024-03-22T03:23:54;10.25;;;9.25;;
45764;SDS011;31474;45.332;10.230;2024-03-22T03:26:20;10.13;;;9.13;;
45764;SDS011;31474;45.332;10.230;2024-03-22T03:28:45;10.88;;;9.77;;
45764;SDS011;31474;45.332;10.230;2024-03-22T03:31:11;11.00;;;9.60;;
45764;SDS011;31474;45.332;10.230;2024-03-22T03:33:37;12.18;;;10.35;;
45764;SDS011;31474;45.332;10.230;2024-03-22T03:36:02;10.02;;;9.02;;
45764;SDS011;31474;45.332;10.230;2024-03-22T03:38:28;10.75;;;9.75;;
45764;SDS011;31474;45.332;10.230;2024-03-22T03:40:54;10.30;;;8.65;;
45764;SDS011;31474;45.332;10.230;2024-03-22T03:43:19;9.60;;;8.68;;
45764;SDS011;31474;45.332;10.230;2024-03-22T03:45:45;10.32;;;9.32;;
45764;SDS011;31474;45.332;10.230;2024-03-22T03:48:10;10.02;;;9.02;;
45764;SDS011;31474;45.332;10.230;2024-03-22T03:50:36;10.55;;;9.50;;
45764;SDS011;31474;45.332;10.230;2024-03-22T03:53:01;10.90;;;9.85;;
45764;SDS011;31474;45.332;10.230;2024-03-22T03:55:27;11.80;;;10.60;;
45764;SDS011;31474;45.332;10.230;2024-03-22T03:57:53;10.35;;;9.38;;
45764;SDS011;31474;45.332;10.230;2024-03-22T04:00:19;10.10;;;9.05;;
45764;SDS011;31474;45.332;10.230;2024-03-22T04:02:45;10.23;;;9.23;;
45764;SDS011;31474;45.332;10.230;2024-03-22T04:05:13;11.43;;;10.32;;
45764;SDS011;31474;45.332;10.230;2024-03-22T04:07:39;10.73;;;9.63;;
45764;SDS011;31474;45.332;10.230;2024-03-22T04:10:05;10.88;;;9.82;;
45764;SDS011;31474;45.332;10.230;2024-03-22T04:12:31;13.10;;;11.75;;
45764;SDS011;31474;45.332;10.230;2024-03-22T04:14:56;11.30;;;10.18;;
45764;SDS011;31474;45.332;10.230;2024-03-22T04:17:22;11.57;;;10.48;;
45764;SDS011;31474;45.332;10.230;2024-03-22T04:19:49;11.38;;;9.48;;
45764;SDS011;31474;45.332;10.230;2024-03-22T04:22:14;11.43;;;10.18;;
45764;SDS011;31474;45.332;10.230;2024-03-22T04:24:40;10.93;;;9.93;;
45764;SDS011;31474;45.332;10.230;2024-03-22T04:27:05;11.25;;;10.15;;
45764;SDS011;31474;45.332;10.230;2024-03-22T04:29:32;11.20;;;10.10;;
45764;SDS011;31474;45.332;10.230;2024-03-22T04:31:57;11.30;;;10.20;;
45764;SDS011;31474;45.332;10.230;2024-03-22T04:34:23;10.40;;;9.32;;
45764;SDS011;31474;45.332;10.230;2024-03-22T04:36:50;10.73;;;9.48;;
45764;SDS011;31474;45.332;10.230;2024-03-22T04:39:17;10.80;;;9.80;;
45764;SDS011;31474;45.332;10.230;2024-03-22T04:41:44;12.10;;;10.93;;
45764;SDS011;31474;45.332;10.230;2024-03-22T04:44:10;10.48;;;9.48;;
45764;SDS011;31474;45.332;10.230;2024-03-22T04:46:35;10.60;;;9.50;;
45764;SDS011;31474;45.332;10.230;2024-03-22T04:49:01;11.55;;;10.35;;
45764;SDS011;31474;45.332;10.230;2024-03-22T04:51:26;10.70;;;9.35;;
45764;SDS011;31474;45.332;10.230;2024-03-22T04:53:52;10.50;;;9.48;;
45764;SDS011;31474;45.332;10.230;2024-03-22T04:56:18;10.80;;;9.65;;
45764;SDS011;31474;45.332;10.230;2024-03-22T04:58:43;10.95;;;9.88;;
45764;SDS011;31474;45.332;10.230;2024-03-22T05:01:09;11.05;;;10.00;;
45764;SDS011;31474;45.332;10.230;2024-03-22T05:03:36;11.38;;;10.18;;
45764;SDS011;31474;45.332;10.230;2024-03-22T05:06:02;10.45;;;9.45;;
45764;SDS011;31474;45.332;10.230;2024-03-22T05:08:28;10.20;;;9.30;;
45764;SDS011;31474;45.332;10.230;2024-03-22T05:10:54;10.73;;;9.68;;
45764;SDS011;31474;45.332;10.230;2024-03-22T05:13:19;12.40;;;11.00;;
45764;SDS011;31474;45.332;10.230;2024-03-22T05:15:45;11.40;;;10.27;;
45764;SDS011;31474;45.332;10.230;2024-03-22T05:18:11;11.07;;;9.93;;
45764;SDS011;31474;45.332;10.230;2024-03-22T05:20:37;12.23;;;11.02;;
45764;SDS011;31474;45.332;10.230;2024-03-22T05:23:02;11.20;;;10.10;;
45764;SDS011;31474;45.332;10.230;2024-03-22T05:25:28;11.95;;;10.75;;
45764;SDS011;31474;45.332;10.230;2024-03-22T05:27:54;13.45;;;11.25;;
45764;SDS011;31474;45.332;10.230;2024-03-22T05:30:19;11.68;;;10.48;;
45764;SDS011;31474;45.332;10.230;2024-03-22T05:32:45;12.95;;;11.10;;
45764;SDS011;31474;45.332;10.230;2024-03-22T05:35:10;11.90;;;10.70;;
45764;SDS011;31474;45.332;10.230;2024-03-22T05:37:36;11.57;;;10.35;;
45764;SDS011;31474;45.332;10.230;2024-03-22T05:40:02;12.50;;;11.02;;
45764;SDS011;31474;45.332;10.230;2024-03-22T05:42:31;12.40;;;11.00;;
45764;SDS011;31474;45.332;10.230;2024-03-22T05:44:57;12.45;;;11.25;;
45764;SDS011;31474;45.332;10.230;2024-03-22T05:47:22;11.57;;;10.48;;
45764;SDS011;31474;45.332;10.230;2024-03-22T05:49:48;17.67;;;15.43;;
45764;SDS011;31474;45.332;10.230;2024-03-22T05:52:13;18.65;;;15.10;;
45764;SDS011;31474;45.332;10.230;2024-03-22T05:54:39;13.40;;;12.10;;
45764;SDS011;31474;45.332;10.230;2024-03-22T05:57:05;13.32;;;11.95;;
45764;SDS011;31474;45.332;10.230;2024-03-22T05:59:31;12.68;;;11.48;;
45764;SDS011;31474;45.332;10.230;2024-03-22T06:01:57;12.57;;;11.38;;
45764;SDS011;31474;45.332;10.230;2024-03-22T06:04:22;12.88;;;11.68;;
45764;SDS011;31474;45.332;10.230;2024-03-22T06:06:48;12.65;;;11.35;;
45764;SDS011;31474;45.332;10.230;2024-03-22T06:09:14;15.90;;;12.00;;
45764;SDS011;31474;45.332;10.230;2024-03-22T06:11:48;12.40;;;11.10;;
45764;SDS011;31474;45.332;10.230;2024-03-22T06:14:15;16.58;;;14.30;;
45764;SDS011;31474;45.332;10.230;2024-03-22T06:16:40;15.32;;;13.73;;
45764;SDS011;31474;45.332;10.230;2024-03-22T06:19:06;13.13;;;11.82;;
45764;SDS011;31474;45.332;10.230;2024-03-22T06:21:31;12.80;;;11.57;;
45764;SDS011;31474;45.332;10.230;2024-03-22T06:23:57;12.70;;;11.38;;
45764;SDS011;31474;45.332;10.230;2024-03-22T06:26:22;12.85;;;11.45;;
45764;SDS011;31474;45.332;10.230;2024-03-22T06:28:49;55.53;;;44.00;;
45764;SDS011;31474;45.332;10.230;2024-03-22T06:31:15;79.05;;;60.45;;
45764;SDS011;31474;45.332;10.230;2024-03-22T06:33:40;63.45;;;54.17;;
45764;SDS011;31474;45.332;10.230;2024-03-22T06:36:06;97.28;;;64.18;;
45764;SDS011;31474;45.332;10.230;2024-03-22T06:38:32;82.60;;;62.22;;
45764;SDS011;31474;45.332;10.230;2024-03-22T06:40:57;84.47;;;62.80;;
45764;SDS011;31474;45.332;10.230;2024-03-22T06:43:24;81.43;;;60.35;;
45764;SDS011;31474;45.332;10.230;2024-03-22T06:45:50;79.18;;;58.58;;
45764;SDS011;31474;45.332;10.230;2024-03-22T06:48:15;85.60;;;65.03;;
45764;SDS011;31474;45.332;10.230;2024-03-22T06:50:41;83.05;;;61.83;;
45764;SDS011;31474;45.332;10.230;2024-03-22T06:53:07;82.78;;;61.55;;
45764;SDS011;31474;45.332;10.230;2024-03-22T06:55:34;78.93;;;59.50;;
45764;SDS011;31474;45.332;10.230;2024-03-22T06:58:00;78.82;;;58.83;;
45764;SDS011;31474;45.332;10.230;2024-03-22T07:00:26;75.07;;;57.65;;
45764;SDS011;31474;45.332;10.230;2024-03-22T07:02:51;77.47;;;58.15;;
45764;SDS011;31474;45.332;10.230;2024-03-22T07:05:17;72.63;;;55.35;;
45764;SDS011;31474;45.332;10.230;2024-03-22T07:07:42;56.40;;;46.88;;
45764;SDS011;31474;45.332;10.230;2024-03-22T07:10:08;75.00;;;56.47;;
45764;SDS011;31474;45.332;10.230;2024-03-22T07:12:34;56.85;;;47.80;;
45764;SDS011;31474;45.332;10.230;2024-03-22T07:15:00;71.40;;;54.70;;
45764;SDS011;31474;45.332;10.230;2024-03-22T07:17:27;74.65;;;55.00;;
45764;SDS011;31474;45.332;10.230;2024-03-22T07:19:53;57.30;;;47.33;;
45764;SDS011;31474;45.332;10.230;2024-03-22T07:22:19;66.30;;;53.42;;
45764;SDS011;31474;45.332;10.230;2024-03-22T07:24:45;55.25;;;47.47;;
45764;SDS011;31474;45.332;10.230;2024-03-22T07:27:12;63.13;;;51.47;;
45764;SDS011;31474;45.332;10.230;2024-03-22T07:29:39;54.92;;;45.65;;
45764;SDS011;31474;45.332;10.230;2024-03-22T07:32:04;65.18;;;50.33;;
45764;SDS011;31474;45.332;10.230;2024-03-22T07:34:31;50.97;;;45.42;;
45764;SDS011;31474;45.332;10.230;2024-03-22T07:36:56;61.83;;;49.45;;
45764;SDS011;31474;45.332;10.230;2024-03-22T07:39:22;53.47;;;45.35;;
45764;SDS011;31474;45.332;10.230;2024-03-22T07:41:48;67.65;;;51.55;;
45764;SDS011;31474;45.332;10.230;2024-03-22T07:44:14;47.67;;;42.28;;
45764;SDS011;31474;45.332;10.230;2024-03-22T07:46:42;61.47;;;49.25;;
45764;SDS011;31474;45.332;10.230;2024-03-22T07:49:09;47.28;;;41.60;;
45764;SDS011;31474;45.332;10.230;2024-03-22T07:51:35;49.22;;;43.00;;
45764;SDS011;31474;45.332;10.230;2024-03-22T07:54:00;66.47;;;51.45;;
45764;SDS011;31474;45.332;10.230;2024-03-22T07:56:27;50.47;;;44.45;;
45764;SDS011;31474;45.332;10.230;2024-03-22T07:58:53;57.92;;;47.53;;
45764;SDS011;31474;45.332;10.230;2024-03-22T08:01:18;46.58;;;41.08;;
45764;SDS011;31474;45.332;10.230;2024-03-22T08:03:44;45.45;;;40.60;;
45764;SDS011;31474;45.332;10.230;2024-03-22T08:06:10;58.97;;;45.80;;
45764;SDS011;31474;45.332;10.230;2024-03-22T08:08:35;43.80;;;39.15;;
45764;SDS011;31474;45.332;10.230;2024-03-22T08:11:01;54.38;;;46.30;;
45764;SDS011;31474;45.332;10.230;2024-03-22T08:13:26;45.65;;;39.33;;
45764;SDS011;31474;45.332;10.230;2024-03-22T08:15:52;56.75;;;44.75;;
45764;SDS011;31474;45.332;10.230;2024-03-22T08:18:18;45.30;;;40.50;;
45764;SDS011;31474;45.332;10.230;2024-03-22T08:20:44;54.10;;;43.42;;
45764;SDS011;31474;45.332;10.230;2024-03-22T08:23:10;42.08;;;37.00;;
45764;SDS011;31474;45.332;10.230;2024-03-22T08:25:35;43.15;;;38.35;;
45764;SDS011;31474;45.332;10.230;2024-03-22T08:28:02;54.97;;;43.70;;
45764;SDS011;31474;45.332;10.230;2024-03-22T08:30:27;44.17;;;39.38;;
45764;SDS011;31474;45.332;10.230;2024-03-22T08:32:53;49.63;;;40.28;;
45764;SDS011;31474;45.332;10.230;2024-03-22T08:35:19;42.15;;;37.55;;
45764;SDS011;31474;45.332;10.230;2024-03-22T08:37:44;40.53;;;36.22;;
45764;SDS011;31474;45.332;10.230;2024-03-22T08:40:10;50.00;;;41.30;;
45764;SDS011;31474;45.332;10.230;2024-03-22T08:42:37;41.45;;;36.58;;
45764;SDS011;31474;45.332;10.230;2024-03-22T08:45:03;50.53;;;40.78;;
45764;SDS011;31474;45.332;10.230;2024-03-22T08:47:29;42.08;;;37.50;;
45764;SDS011;31474;45.332;10.230;2024-03-22T08:49:56;41.33;;;36.92;;
45764;SDS011;31474;45.332;10.230;2024-03-22T08:52:22;49.00;;;38.65;;
45764;SDS011;31474;45.332;10.230;2024-03-22T08:54:49;43.40;;;37.08;;
45764;SDS011;31474;45.332;10.230;2024-03-22T08:57:15;50.17;;;41.10;;
45764;SDS011;31474;45.332;10.230;2024-03-22T08:59:41;42.88;;;36.35;;
45764;SDS011;31474;45.332;10.230;2024-03-22T09:02:06;51.15;;;40.03;;
45764;SDS011;31474;45.332;10.230;2024-03-22T09:04:32;41.25;;;35.75;;
45764;SDS011;31474;45.332;10.230;2024-03-22T09:06:57;46.28;;;39.05;;
45764;SDS011;31474;45.332;10.230;2024-03-22T09:09:23;37.65;;;33.78;;
45764;SDS011;31474;45.332;10.230;2024-03-22T09:11:49;38.90;;;34.90;;
45764;SDS011;31474;45.332;10.230;2024-03-22T09:14:14;50.20;;;39.17;;
45764;SDS011;31474;45.332;10.230;2024-03-22T09:16:40;38.50;;;33.45;;
45764;SDS011;31474;45.332;10.230;2024-03-22T09:19:05;36.65;;;32.75;;
45764;SDS011;31474;45.332;10.230;2024-03-22T09:21:31;39.00;;;35.00;;
45764;SDS011;31474;45.332;10.230;2024-03-22T09:23:57;43.38;;;37.13;;
45764;SDS011;31474;45.332;10.230;2024-03-22T09:26:23;37.40;;;33.28;;
45764;SDS011;31474;45.332;10.230;2024-03-22T09:28:48;36.30;;;32.50;;
45764;SDS011;31474;45.332;10.230;2024-03-22T09:31:15;35.70;;;31.95;;
45764;SDS011;31474;45.332;10.230;2024-03-22T09:33:42;45.67;;;37.28;;
45764;SDS011;31474;45.332;10.230;2024-03-22T09:36:08;37.03;;;31.55;;
45764;SDS011;31474;45.332;10.230;2024-03-22T09:38:34;43.17;;;35.80;;
45764;SDS011;31474;45.332;10.230;2024-03-22T09:40:59;36.80;;;32.30;;
45764;SDS011;31474;45.332;10.230;2024-03-22T09:43:26;35.80;;;32.08;;
45764;SDS011;31474;45.332;10.230;2024-03-22T09:45:52;35.38;;;31.52;;
45764;SDS011;31474;45.332;10.230;2024-03-22T09:48:20;36.67;;;32.72;;
45764;SDS011;31474;45.332;10.230;2024-03-22T09:50:46;35.08;;;31.38;;
45764;SDS011;31474;45.332;10.230;2024-03-22T09:53:18;34.53;;;30.80;;
45764;SDS011;31474;45.332;10.230;2024-03-22T09:55:47;35.43;;;31.60;;
45764;SDS011;31474;45.332;10.230;2024-03-22T09:58:14;42.60;;;35.13;;
45764;SDS011;31474;45.332;10.230;2024-03-22T10:00:41;34.35;;;30.75;;
45764;SDS011;31474;45.332;10.230;2024-03-22T10:03:07;34.78;;;30.95;;
45764;SDS011;31474;45.332;10.230;2024-03-22T10:05:34;33.67;;;30.30;;
45764;SDS011;31474;45.332;10.230;2024-03-22T10:07:59;34.83;;;31.15;;
45764;SDS011;31474;45.332;10.230;2024-03-22T10:10:26;40.42;;;35.63;;
45764;SDS011;31474;45.332;10.230;2024-03-22T10:12:52;33.97;;;30.33;;
45764;SDS011;31474;45.332;10.230;2024-03-22T10:15:20;31.73;;;28.33;;
45764;SDS011;31474;45.332;10.230;2024-03-22T10:17:48;32.25;;;28.83;;
45764;SDS011;31474;45.332;10.230;2024-03-22T10:20:16;33.08;;;29.50;;
45764;SDS011;31474;45.332;10.230;2024-03-22T10:22:43;32.70;;;29.27;;
45764;SDS011;31474;45.332;10.230;2024-03-22T10:25:12;31.73;;;28.42;;
45764;SDS011;31474;45.332;10.230;2024-03-22T10:27:39;33.35;;;29.85;;
45764;SDS011;31474;45.332;10.230;2024-03-22T10:30:07;31.90;;;28.50;;
45764;SDS011;31474;45.332;10.230;2024-03-22T10:32:35;33.60;;;29.88;;
45764;SDS011;31474;45.332;10.230;2024-03-22T10:35:04;42.35;;;33.90;;
45764;SDS011;31474;45.332;10.230;2024-03-22T10:37:32;30.00;;;26.90;;
45764;SDS011;31474;45.332;10.230;2024-03-22T10:40:00;41.28;;;33.22;;
45764;SDS011;31474;45.332;10.230;2024-03-22T10:42:32;30.23;;;27.02;;
45764;SDS011;31474;45.332;10.230;2024-03-22T10:44:59;32.42;;;27.60;;
45764;SDS011;31474;45.332;10.230;2024-03-22T10:47:24;37.83;;;31.75;;
45764;SDS011;31474;45.332;10.230;2024-03-22T10:49:54;30.67;;;26.85;;
45764;SDS011;31474;45.332;10.230;2024-03-22T10:52:29;35.47;;;30.08;;
45764;SDS011;31474;45.332;10.230;2024-03-22T10:54:57;29.92;;;26.42;;
45764;SDS011;31474;45.332;10.230;2024-03-22T10:57:23;39.00;;;31.67;;
45764;SDS011;31474;45.332;10.230;2024-03-22T10:59:48;30.77;;;27.55;;
45764;SDS011;31474;45.332;10.230;2024-03-22T11:02:19;39.88;;;32.75;;
45764;SDS011;31474;45.332;10.230;2024-03-22T11:04:58;31.02;;;27.70;;
45764;SDS011;31474;45.332;10.230;2024-03-22T11:07:28;37.10;;;30.88;;
45764;SDS011;31474;45.332;10.230;2024-03-22T11:09:58;32.35;;;29.02;;
45764;SDS011;31474;45.332;10.230;2024-03-22T11:12:28;31.45;;;28.15;;
45764;SDS011;31474;45.332;10.230;2024-03-22T11:14:58;30.55;;;27.23;;
45764;SDS011;31474;45.332;10.230;2024-03-22T11:17:24;35.13;;;30.42;;
45764;SDS011;31474;45.332;10.230;2024-03-22T11:19:50;34.80;;;28.80;;
45764;SDS011;31474;45.332;10.230;2024-03-22T11:22:17;37.15;;;31.58;;
45764;SDS011;31474;45.332;10.230;2024-03-22T11:24:43;29.42;;;26.23;;
45764;SDS011;31474;45.332;10.230;2024-03-22T11:27:09;31.25;;;27.58;;
45764;SDS011;31474;45.332;10.230;2024-03-22T11:29:36;40.22;;;33.85;;
45764;SDS011;31474;45.332;10.230;2024-03-22T11:32:05;33.85;;;26.25;;
45764;SDS011;31474;45.332;10.230;2024-03-22T11:34:33;33.60;;;28.83;;
45764;SDS011;31474;45.332;10.230;2024-03-22T11:37:00;30.25;;;26.83;;
45764;SDS011;31474;45.332;10.230;2024-03-22T11:39:25;30.60;;;27.30;;
45764;SDS011;31474;45.332;10.230;2024-03-22T11:41:51;31.85;;;28.40;;
45764;SDS011;31474;45.332;10.230;2024-03-22T11:44:17;32.75;;;26.42;;
45764;SDS011;31474;45.332;10.230;2024-03-22T11:46:43;30.48;;;26.80;;
45764;SDS011;31474;45.332;10.230;2024-03-22T11:49:10;28.05;;;25.02;;
45764;SDS011;31474;45.332;10.230;2024-03-22T11:51:36;34.63;;;27.27;;
45764;SDS011;31474;45.332;10.230;2024-03-22T11:54:02;29.52;;;25.35;;
45764;SDS011;31474;45.332;10.230;2024-03-22T11:56:28;37.72;;;28.98;;
45764;SDS011;31474;45.332;10.230;2024-03-22T11:58:59;28.50;;;24.63;;
45764;SDS011;31474;45.332;10.230;2024-03-22T12:01:26;28.48;;;25.40;;
45764;SDS011;31474;45.332;10.230;2024-03-22T12:03:51;29.13;;;26.00;;
45764;SDS011;31474;45.332;10.230;2024-03-22T12:06:18;28.48;;;25.48;;
45764;SDS011;31474;45.332;10.230;2024-03-22T12:08:45;26.92;;;24.08;;
45764;SDS011;31474;45.332;10.230;2024-03-22T12:11:10;28.52;;;24.40;;
45764;SDS011;31474;45.332;10.230;2024-03-22T12:13:37;31.10;;;25.08;;
45764;SDS011;31474;45.332;10.230;2024-03-22T12:16:03;28.88;;;24.88;;
45764;SDS011;31474;45.332;10.230;2024-03-22T12:18:30;26.90;;;24.00;;
45764;SDS011;31474;45.332;10.230;2024-03-22T12:20:55;27.23;;;24.00;;
45764;SDS011;31474;45.332;10.230;2024-03-22T12:23:21;26.20;;;22.75;;
45764;SDS011;31474;45.332;10.230;2024-03-22T12:25:46;27.80;;;23.63;;
45764;SDS011;31474;45.332;10.230;2024-03-22T12:28:12;27.38;;;23.90;;
45764;SDS011;31474;45.332;10.230;2024-03-22T12:30:39;30.65;;;23.23;;
45764;SDS011;31474;45.332;10.230;2024-03-22T12:33:05;27.45;;;23.40;;
45764;SDS011;31474;45.332;10.230;2024-03-22T12:35:35;27.27;;;24.33;;
45764;SDS011;31474;45.332;10.230;2024-03-22T12:38:01;24.80;;;21.95;;
45764;SDS011;31474;45.332;10.230;2024-03-22T12:40:27;24.38;;;21.80;;
45764;SDS011;31474;45.332;10.230;2024-03-22T12:42:54;25.77;;;22.83;;
45764;SDS011;31474;45.332;10.230;2024-03-22T12:45:21;23.98;;;20.95;;
45764;SDS011;31474;45.332;10.230;2024-03-22T12:47:46;26.83;;;22.15;;
45764;SDS011;31474;45.332;10.230;2024-03-22T12:50:12;26.02;;;22.17;;
45764;SDS011;31474;45.332;10.230;2024-03-22T12:52:38;26.25;;;21.85;;
45764;SDS011;31474;45.332;10.230;2024-03-22T12:55:04;23.83;;;20.50;;
45764;SDS011;31474;45.332;10.230;2024-03-22T12:57:31;23.73;;;20.80;;
45764;SDS011;31474;45.332;10.230;2024-03-22T12:59:57;24.30;;;20.50;;
45764;SDS011;31474;45.332;10.230;2024-03-22T13:02:23;24.10;;;20.25;;
45764;SDS011;31474;45.332;10.230;2024-03-22T13:04:51;21.85;;;19.60;;
45764;SDS011;31474;45.332;10.230;2024-03-22T13:07:18;20.95;;;18.75;;
45764;SDS011;31474;45.332;10.230;2024-03-22T13:09:44;22.35;;;19.95;;
45764;SDS011;31474;45.332;10.230;2024-03-22T13:12:10;22.95;;;20.00;;
45764;SDS011;31474;45.332;10.230;2024-03-22T13:14:35;23.13;;;19.73;;
45764;SDS011;31474;45.332;10.230;2024-03-22T13:17:01;23.20;;;19.38;;
45764;SDS011;31474;45.332;10.230;2024-03-22T13:19:26;24.48;;;20.98;;
45764;SDS011;31474;45.332;10.230;2024-03-22T13:21:52;22.75;;;20.13;;
45764;SDS011;31474;45.332;10.230;2024-03-22T13:24:18;22.50;;;19.73;;
45764;SDS011;31474;45.332;10.230;2024-03-22T13:26:44;20.30;;;18.13;;
45764;SDS011;31474;45.332;10.230;2024-03-22T13:29:10;19.83;;;17.83;;
45764;SDS011;31474;45.332;10.230;2024-03-22T13:31:36;22.05;;;19.17;;
45764;SDS011;31474;45.332;10.230;2024-03-22T13:34:02;20.38;;;17.95;;
45764;SDS011;31474;45.332;10.230;2024-03-22T13:36:28;21.02;;;18.13;;
45764;SDS011;31474;45.332;10.230;2024-03-22T13:38:57;21.88;;;17.63;;
45764;SDS011;31474;45.332;10.230;2024-03-22T13:41:23;25.63;;;17.75;;
45764;SDS011;31474;45.332;10.230;2024-03-22T13:43:49;19.70;;;16.92;;
45764;SDS011;31474;45.332;10.230;2024-03-22T13:46:14;18.17;;;16.15;;
45764;SDS011;31474;45.332;10.230;2024-03-22T13:48:42;21.63;;;16.67;;
45764;SDS011;31474;45.332;10.230;2024-03-22T13:51:08;19.83;;;17.73;;
45764;SDS011;31474;45.332;10.230;2024-03-22T13:53:34;21.92;;;16.67;;
45764;SDS011;31474;45.332;10.230;2024-03-22T13:55:59;21.85;;;15.77;;
45764;SDS011;31474;45.332;10.230;2024-03-22T13:58:26;19.95;;;16.20;;
45764;SDS011;31474;45.332;10.230;2024-03-22T14:00:52;17.67;;;15.77;;
45764;SDS011;31474;45.332;10.230;2024-03-22T14:03:17;18.25;;;14.48;;
45764;SDS011;31474;45.332;10.230;2024-03-22T14:05:43;18.98;;;15.35;;
45764;SDS011;31474;45.332;10.230;2024-03-22T14:08:09;19.85;;;15.55;;